sensor_id;sensor_type;location;lat;lon;timestamp;P1;durP1;ratioP1;P2;durP2;ratioP2
47259;SDS011;32999;52.412;4.890;2022-08-01T00:03:45;10.52;;;6.50;;
47259;SDS011;32999;52.412;4.890;2022-08-01T00:08:47;13.45;;;6.20;;
47259;SDS011;32999;52.412;4.890;2022-08-01T00:13:50;9.85;;;5.53;;
47259;SDS011;32999;52.412;4.890;2022-08-01T00:18:52;6.43;;;4.90;;
47259;SDS011;32999;52.412;4.890;2022-08-01T00:23:53;6.07;;;4.22;;
47259;SDS011;32999;52.412;4.890;2022-08-01T00:28:58;6.32;;;4.05;;
47259;SDS011;32999;52.412;4.890;2022-08-01T00:34:03;6.40;;;3.50;;
47259;SDS011;32999;52.412;4.890;2022-08-01T00:39:13;6.57;;;4.28;;
47259;SDS011;32999;52.412;4.890;2022-08-01T00:44:16;6.50;;;3.92;;
47259;SDS011;32999;52.412;4.890;2022-08-01T00:49:18;6.95;;;4.45;;
47259;SDS011;32999;52.412;4.890;2022-08-01T00:54:19;8.18;;;4.63;;
47259;SDS011;32999;52.412;4.890;2022-08-01T00:59:23;7.05;;;4.47;;
47259;SDS011;32999;52.412;4.890;2022-08-01T01:04:25;6.10;;;4.00;;
47259;SDS011;32999;52.412;4.890;2022-08-01T01:09:30;7.90;;;4.18;;
47259;SDS011;32999;52.412;4.890;2022-08-01T01:14:44;6.82;;;4.55;;
47259;SDS011;32999;52.412;4.890;2022-08-01T01:19:57;8.23;;;4.57;;
47259;SDS011;32999;52.412;4.890;2022-08-01T01:25:17;7.70;;;4.95;;
47259;SDS011;32999;52.412;4.890;2022-08-01T01:30:30;5.13;;;4.05;;
47259;SDS011;32999;52.412;4.890;2022-08-01T01:35:34;8.07;;;4.35;;
47259;SDS011;32999;52.412;4.890;2022-08-01T01:40:39;6.38;;;4.55;;
47259;SDS011;32999;52.412;4.890;2022-08-01T01:45:44;7.80;;;5.68;;
47259;SDS011;32999;52.412;4.890;2022-08-01T01:50:48;5.45;;;4.15;;
47259;SDS011;32999;52.412;4.890;2022-08-01T01:55:51;5.32;;;4.18;;
47259;SDS011;32999;52.412;4.890;2022-08-01T02:00:56;5.60;;;4.80;;
47259;SDS011;32999;52.412;4.890;2022-08-01T02:06:00;11.13;;;5.65;;
47259;SDS011;32999;52.412;4.890;2022-08-01T02:11:03;6.97;;;5.03;;
47259;SDS011;32999;52.412;4.890;2022-08-01T02:16:24;9.88;;;5.30;;
47259;SDS011;32999;52.412;4.890;2022-08-01T02:21:30;5.28;;;3.70;;
47259;SDS011;32999;52.412;4.890;2022-08-01T02:26:36;4.70;;;2.58;;
47259;SDS011;32999;52.412;4.890;2022-08-01T02:31:44;3.90;;;2.28;;
47259;SDS011;32999;52.412;4.890;2022-08-01T02:36:47;2.28;;;2.08;;
47259;SDS011;32999;52.412;4.890;2022-08-01T02:41:50;5.25;;;2.50;;
47259;SDS011;32999;52.412;4.890;2022-08-01T02:47:00;3.00;;;2.10;;
47259;SDS011;32999;52.412;4.890;2022-08-01T02:52:04;3.92;;;3.20;;
47259;SDS011;32999;52.412;4.890;2022-08-01T02:57:08;3.63;;;3.22;;
47259;SDS011;32999;52.412;4.890;2022-08-01T03:02:11;5.55;;;3.50;;
47259;SDS011;32999;52.412;4.890;2022-08-01T03:07:15;3.60;;;3.30;;
47259;SDS011;32999;52.412;4.890;2022-08-01T03:12:18;4.13;;;3.20;;
47259;SDS011;32999;52.412;4.890;2022-08-01T03:17:24;6.65;;;2.92;;
47259;SDS011;32999;52.412;4.890;2022-08-01T03:22:27;4.03;;;2.72;;
47259;SDS011;32999;52.412;4.890;2022-08-01T03:27:30;3.85;;;2.88;;
47259;SDS011;32999;52.412;4.890;2022-08-01T03:32:35;4.25;;;2.83;;
47259;SDS011;32999;52.412;4.890;2022-08-01T03:37:38;3.43;;;3.03;;
47259;SDS011;32999;52.412;4.890;2022-08-01T03:42:46;4.90;;;3.53;;
47259;SDS011;32999;52.412;4.890;2022-08-01T03:47:52;8.57;;;4.60;;
47259;SDS011;32999;52.412;4.890;2022-08-01T03:52:59;7.80;;;3.88;;
47259;SDS011;32999;52.412;4.890;2022-08-01T03:58:02;5.07;;;4.13;;
47259;SDS011;32999;52.412;4.890;2022-08-01T04:03:07;23.27;;;3.90;;
47259;SDS011;32999;52.412;4.890;2022-08-01T04:08:09;5.75;;;3.95;;
47259;SDS011;32999;52.412;4.890;2022-08-01T04:13:11;8.57;;;4.13;;
47259;SDS011;32999;52.412;4.890;2022-08-01T04:18:14;4.90;;;3.75;;
47259;SDS011;32999;52.412;4.890;2022-08-01T04:23:16;9.82;;;5.13;;
47259;SDS011;32999;52.412;4.890;2022-08-01T04:28:21;9.68;;;5.05;;
47259;SDS011;32999;52.412;4.890;2022-08-01T04:33:26;18.35;;;6.20;;
47259;SDS011;32999;52.412;4.890;2022-08-01T04:38:31;24.83;;;6.65;;
47259;SDS011;32999;52.412;4.890;2022-08-01T04:43:36;25.88;;;6.72;;
47259;SDS011;32999;52.412;4.890;2022-08-01T04:48:40;18.00;;;6.40;;
47259;SDS011;32999;52.412;4.890;2022-08-01T04:53:42;25.33;;;5.00;;
47259;SDS011;32999;52.412;4.890;2022-08-01T04:58:45;20.30;;;5.53;;
47259;SDS011;32999;52.412;4.890;2022-08-01T05:03:49;16.52;;;4.78;;
47259;SDS011;32999;52.412;4.890;2022-08-01T05:08:50;18.63;;;5.22;;
47259;SDS011;32999;52.412;4.890;2022-08-01T05:13:52;14.40;;;5.20;;
47259;SDS011;32999;52.412;4.890;2022-08-01T05:18:55;14.57;;;5.18;;
47259;SDS011;32999;52.412;4.890;2022-08-01T05:23:56;22.75;;;5.25;;
47259;SDS011;32999;52.412;4.890;2022-08-01T05:28:58;27.23;;;5.50;;
47259;SDS011;32999;52.412;4.890;2022-08-01T05:34:01;27.27;;;4.97;;
47259;SDS011;32999;52.412;4.890;2022-08-01T05:39:03;12.15;;;4.47;;
47259;SDS011;32999;52.412;4.890;2022-08-01T05:44:05;16.55;;;4.82;;
47259;SDS011;32999;52.412;4.890;2022-08-01T05:49:08;19.63;;;4.68;;
47259;SDS011;32999;52.412;4.890;2022-08-01T05:54:10;19.27;;;4.68;;
47259;SDS011;32999;52.412;4.890;2022-08-01T05:59:11;24.13;;;4.65;;
47259;SDS011;32999;52.412;4.890;2022-08-01T06:04:14;20.13;;;4.93;;
47259;SDS011;32999;52.412;4.890;2022-08-01T06:09:16;20.35;;;5.15;;
47259;SDS011;32999;52.412;4.890;2022-08-01T06:14:18;20.50;;;3.90;;
47259;SDS011;32999;52.412;4.890;2022-08-01T06:19:20;16.85;;;3.90;;
47259;SDS011;32999;52.412;4.890;2022-08-01T06:24:22;17.05;;;3.63;;
47259;SDS011;32999;52.412;4.890;2022-08-01T06:29:24;22.35;;;3.40;;
47259;SDS011;32999;52.412;4.890;2022-08-01T06:34:27;14.75;;;2.92;;
47259;SDS011;32999;52.412;4.890;2022-08-01T06:39:28;18.05;;;3.55;;
47259;SDS011;32999;52.412;4.890;2022-08-01T06:44:30;22.08;;;3.70;;
47259;SDS011;32999;52.412;4.890;2022-08-01T06:49:33;12.75;;;3.17;;
47259;SDS011;32999;52.412;4.890;2022-08-01T06:54:34;17.50;;;3.30;;
47259;SDS011;32999;52.412;4.890;2022-08-01T06:59:36;11.88;;;2.70;;
47259;SDS011;32999;52.412;4.890;2022-08-01T07:04:39;13.77;;;3.00;;
47259;SDS011;32999;52.412;4.890;2022-08-01T07:09:41;14.15;;;2.88;;
47259;SDS011;32999;52.412;4.890;2022-08-01T07:14:43;14.43;;;2.78;;
47259;SDS011;32999;52.412;4.890;2022-08-01T07:19:46;14.45;;;2.85;;
47259;SDS011;32999;52.412;4.890;2022-08-01T07:24:47;11.80;;;3.03;;
47259;SDS011;32999;52.412;4.890;2022-08-01T07:29:49;16.42;;;3.40;;
47259;SDS011;32999;52.412;4.890;2022-08-01T07:34:52;10.35;;;2.25;;
47259;SDS011;32999;52.412;4.890;2022-08-01T07:39:54;13.10;;;2.83;;
47259;SDS011;32999;52.412;4.890;2022-08-01T07:44:55;19.88;;;2.60;;
47259;SDS011;32999;52.412;4.890;2022-08-01T07:50:02;17.05;;;2.70;;
47259;SDS011;32999;52.412;4.890;2022-08-01T07:55:06;12.88;;;2.35;;
47259;SDS011;32999;52.412;4.890;2022-08-01T08:00:09;16.97;;;3.20;;
47259;SDS011;32999;52.412;4.890;2022-08-01T08:05:13;13.30;;;2.70;;
47259;SDS011;32999;52.412;4.890;2022-08-01T08:10:15;15.55;;;3.03;;
47259;SDS011;32999;52.412;4.890;2022-08-01T08:15:16;14.18;;;2.80;;
47259;SDS011;32999;52.412;4.890;2022-08-01T08:20:19;10.63;;;3.42;;
47259;SDS011;32999;52.412;4.890;2022-08-01T08:25:25;15.30;;;2.65;;
47259;SDS011;32999;52.412;4.890;2022-08-01T08:30:27;17.13;;;2.55;;
47259;SDS011;32999;52.412;4.890;2022-08-01T08:35:30;12.23;;;2.88;;
47259;SDS011;32999;52.412;4.890;2022-08-01T08:40:32;20.10;;;4.68;;
47259;SDS011;32999;52.412;4.890;2022-08-01T08:45:36;12.85;;;2.50;;
47259;SDS011;32999;52.412;4.890;2022-08-01T08:50:40;14.10;;;2.42;;
47259;SDS011;32999;52.412;4.890;2022-08-01T08:55:42;12.32;;;2.60;;
47259;SDS011;32999;52.412;4.890;2022-08-01T09:00:45;11.20;;;2.10;;
47259;SDS011;32999;52.412;4.890;2022-08-01T09:05:48;9.57;;;2.75;;
47259;SDS011;32999;52.412;4.890;2022-08-01T09:10:50;9.45;;;2.28;;
47259;SDS011;32999;52.412;4.890;2022-08-01T09:15:52;10.10;;;2.30;;
47259;SDS011;32999;52.412;4.890;2022-08-01T09:21:12;11.02;;;2.38;;
47259;SDS011;32999;52.412;4.890;2022-08-01T09:26:16;10.32;;;2.53;;
47259;SDS011;32999;52.412;4.890;2022-08-01T09:31:19;13.00;;;2.50;;
47259;SDS011;32999;52.412;4.890;2022-08-01T09:36:23;8.68;;;2.00;;
47259;SDS011;32999;52.412;4.890;2022-08-01T09:41:29;11.38;;;2.20;;
47259;SDS011;32999;52.412;4.890;2022-08-01T09:46:32;15.10;;;2.30;;
47259;SDS011;32999;52.412;4.890;2022-08-01T09:51:35;9.80;;;1.98;;
47259;SDS011;32999;52.412;4.890;2022-08-01T09:56:40;11.93;;;2.47;;
47259;SDS011;32999;52.412;4.890;2022-08-01T10:01:43;6.03;;;1.75;;
47259;SDS011;32999;52.412;4.890;2022-08-01T10:06:49;7.87;;;1.73;;
47259;SDS011;32999;52.412;4.890;2022-08-01T10:11:52;5.88;;;2.08;;
47259;SDS011;32999;52.412;4.890;2022-08-01T10:16:59;7.72;;;1.85;;
47259;SDS011;32999;52.412;4.890;2022-08-01T10:22:03;7.75;;;1.80;;
47259;SDS011;32999;52.412;4.890;2022-08-01T10:27:09;7.30;;;1.95;;
47259;SDS011;32999;52.412;4.890;2022-08-01T10:32:11;10.07;;;2.55;;
47259;SDS011;32999;52.412;4.890;2022-08-01T10:37:14;13.05;;;2.85;;
47259;SDS011;32999;52.412;4.890;2022-08-01T10:47:21;6.00;;;1.58;;
47259;SDS011;32999;52.412;4.890;2022-08-01T10:52:29;5.53;;;1.60;;
47259;SDS011;32999;52.412;4.890;2022-08-01T10:57:41;10.67;;;2.23;;
47259;SDS011;32999;52.412;4.890;2022-08-01T11:02:57;8.10;;;1.97;;
47259;SDS011;32999;52.412;4.890;2022-08-01T11:08:03;7.20;;;1.85;;
47259;SDS011;32999;52.412;4.890;2022-08-01T11:13:11;5.18;;;1.40;;
47259;SDS011;32999;52.412;4.890;2022-08-01T11:18:28;15.38;;;2.72;;
47259;SDS011;32999;52.412;4.890;2022-08-01T11:23:33;8.27;;;1.83;;
47259;SDS011;32999;52.412;4.890;2022-08-01T11:34:16;12.10;;;2.00;;
47259;SDS011;32999;52.412;4.890;2022-08-01T11:39:19;4.65;;;1.58;;
47259;SDS011;32999;52.412;4.890;2022-08-01T11:44:21;5.37;;;1.47;;
47259;SDS011;32999;52.412;4.890;2022-08-01T11:55:06;3.00;;;1.27;;
47259;SDS011;32999;52.412;4.890;2022-08-01T12:00:11;9.27;;;2.07;;
47259;SDS011;32999;52.412;4.890;2022-08-01T12:05:14;4.50;;;1.27;;
47259;SDS011;32999;52.412;4.890;2022-08-01T12:10:22;5.43;;;1.75;;
47259;SDS011;32999;52.412;4.890;2022-08-01T12:15:29;2.88;;;1.40;;
47259;SDS011;32999;52.412;4.890;2022-08-01T12:20:32;8.75;;;1.35;;
47259;SDS011;32999;52.412;4.890;2022-08-01T12:25:36;3.92;;;1.55;;
47259;SDS011;32999;52.412;4.890;2022-08-01T12:30:40;6.78;;;2.15;;
47259;SDS011;32999;52.412;4.890;2022-08-01T12:35:41;6.85;;;1.65;;
47259;SDS011;32999;52.412;4.890;2022-08-01T12:40:45;7.28;;;1.88;;
47259;SDS011;32999;52.412;4.890;2022-08-01T12:45:48;5.63;;;1.40;;
47259;SDS011;32999;52.412;4.890;2022-08-01T12:50:52;7.43;;;1.83;;
47259;SDS011;32999;52.412;4.890;2022-08-01T12:55:55;5.10;;;1.10;;
47259;SDS011;32999;52.412;4.890;2022-08-01T13:01:02;7.28;;;1.58;;
47259;SDS011;32999;52.412;4.890;2022-08-01T13:06:14;9.73;;;2.28;;
47259;SDS011;32999;52.412;4.890;2022-08-01T13:11:18;5.47;;;1.55;;
47259;SDS011;32999;52.412;4.890;2022-08-01T13:16:20;4.72;;;1.33;;
47259;SDS011;32999;52.412;4.890;2022-08-01T13:21:24;7.88;;;1.98;;
47259;SDS011;32999;52.412;4.890;2022-08-01T13:26:41;6.32;;;1.88;;
47259;SDS011;32999;52.412;4.890;2022-08-01T13:31:44;6.95;;;1.70;;
47259;SDS011;32999;52.412;4.890;2022-08-01T13:36:46;3.70;;;1.15;;
47259;SDS011;32999;52.412;4.890;2022-08-01T13:41:50;4.37;;;1.70;;
47259;SDS011;32999;52.412;4.890;2022-08-01T13:46:53;5.30;;;1.52;;
47259;SDS011;32999;52.412;4.890;2022-08-01T13:51:56;6.55;;;1.75;;
47259;SDS011;32999;52.412;4.890;2022-08-01T13:56:59;4.10;;;1.42;;
47259;SDS011;32999;52.412;4.890;2022-08-01T14:02:01;5.70;;;1.23;;
47259;SDS011;32999;52.412;4.890;2022-08-01T14:07:03;5.38;;;1.40;;
47259;SDS011;32999;52.412;4.890;2022-08-01T14:12:06;7.88;;;1.25;;
47259;SDS011;32999;52.412;4.890;2022-08-01T14:17:08;4.05;;;1.20;;
47259;SDS011;32999;52.412;4.890;2022-08-01T14:22:10;7.82;;;3.80;;
47259;SDS011;32999;52.412;4.890;2022-08-01T14:27:13;5.47;;;1.20;;
47259;SDS011;32999;52.412;4.890;2022-08-01T14:32:14;3.65;;;1.02;;
47259;SDS011;32999;52.412;4.890;2022-08-01T14:37:16;5.57;;;1.50;;
47259;SDS011;32999;52.412;4.890;2022-08-01T14:42:19;4.63;;;1.48;;
47259;SDS011;32999;52.412;4.890;2022-08-01T14:47:21;2.90;;;0.80;;
47259;SDS011;32999;52.412;4.890;2022-08-01T14:52:22;5.22;;;1.60;;
47259;SDS011;32999;52.412;4.890;2022-08-01T14:57:25;7.38;;;1.45;;
47259;SDS011;32999;52.412;4.890;2022-08-01T15:02:27;3.40;;;1.37;;
47259;SDS011;32999;52.412;4.890;2022-08-01T15:07:29;3.92;;;1.35;;
47259;SDS011;32999;52.412;4.890;2022-08-01T15:12:32;5.90;;;1.13;;
47259;SDS011;32999;52.412;4.890;2022-08-01T15:22:35;5.57;;;1.65;;
47259;SDS011;32999;52.412;4.890;2022-08-01T15:27:38;6.20;;;1.17;;
47259;SDS011;32999;52.412;4.890;2022-08-01T15:32:40;10.67;;;1.73;;
47259;SDS011;32999;52.412;4.890;2022-08-01T15:37:41;4.38;;;1.38;;
47259;SDS011;32999;52.412;4.890;2022-08-01T15:42:45;4.63;;;1.42;;
47259;SDS011;32999;52.412;4.890;2022-08-01T15:47:47;3.45;;;1.17;;
47259;SDS011;32999;52.412;4.890;2022-08-01T15:52:48;6.28;;;1.42;;
47259;SDS011;32999;52.412;4.890;2022-08-01T15:57:51;6.30;;;1.98;;
47259;SDS011;32999;52.412;4.890;2022-08-01T16:02:53;7.43;;;1.57;;
47259;SDS011;32999;52.412;4.890;2022-08-01T16:07:56;7.40;;;1.38;;
47259;SDS011;32999;52.412;4.890;2022-08-01T16:12:58;13.25;;;2.97;;
47259;SDS011;32999;52.412;4.890;2022-08-01T16:18:00;15.23;;;2.17;;
47259;SDS011;32999;52.412;4.890;2022-08-01T16:23:02;8.20;;;1.95;;
47259;SDS011;32999;52.412;4.890;2022-08-01T16:28:05;8.30;;;1.90;;
47259;SDS011;32999;52.412;4.890;2022-08-01T16:33:08;11.65;;;3.17;;
47259;SDS011;32999;52.412;4.890;2022-08-01T16:38:10;8.57;;;1.65;;
47259;SDS011;32999;52.412;4.890;2022-08-01T16:43:14;5.75;;;1.50;;
47259;SDS011;32999;52.412;4.890;2022-08-01T16:48:16;6.73;;;1.50;;
47259;SDS011;32999;52.412;4.890;2022-08-01T16:53:18;7.53;;;1.70;;
47259;SDS011;32999;52.412;4.890;2022-08-01T16:58:22;7.90;;;2.25;;
47259;SDS011;32999;52.412;4.890;2022-08-01T17:03:30;10.77;;;1.98;;
47259;SDS011;32999;52.412;4.890;2022-08-01T17:08:32;4.45;;;1.30;;
47259;SDS011;32999;52.412;4.890;2022-08-01T17:13:35;8.00;;;1.45;;
47259;SDS011;32999;52.412;4.890;2022-08-01T17:18:37;5.45;;;1.13;;
47259;SDS011;32999;52.412;4.890;2022-08-01T17:23:38;11.60;;;1.77;;
47259;SDS011;32999;52.412;4.890;2022-08-01T17:28:42;7.82;;;1.42;;
47259;SDS011;32999;52.412;4.890;2022-08-01T17:33:43;6.77;;;1.90;;
47259;SDS011;32999;52.412;4.890;2022-08-01T17:38:45;6.38;;;1.30;;
47259;SDS011;32999;52.412;4.890;2022-08-01T17:43:49;10.15;;;1.90;;
47259;SDS011;32999;52.412;4.890;2022-08-01T17:48:50;9.57;;;1.50;;
47259;SDS011;32999;52.412;4.890;2022-08-01T17:53:52;3.80;;;0.98;;
47259;SDS011;32999;52.412;4.890;2022-08-01T17:58:55;5.38;;;1.42;;
47259;SDS011;32999;52.412;4.890;2022-08-01T18:04:00;7.82;;;1.63;;
47259;SDS011;32999;52.412;4.890;2022-08-01T18:09:02;7.78;;;1.63;;
47259;SDS011;32999;52.412;4.890;2022-08-01T18:14:05;5.43;;;1.48;;
47259;SDS011;32999;52.412;4.890;2022-08-01T18:19:07;12.37;;;4.93;;
47259;SDS011;32999;52.412;4.890;2022-08-01T18:24:08;6.07;;;1.60;;
47259;SDS011;32999;52.412;4.890;2022-08-01T18:29:12;4.10;;;1.20;;
47259;SDS011;32999;52.412;4.890;2022-08-01T18:34:16;5.03;;;1.60;;
47259;SDS011;32999;52.412;4.890;2022-08-01T18:39:17;6.65;;;1.75;;
47259;SDS011;32999;52.412;4.890;2022-08-01T18:44:20;6.30;;;1.60;;
47259;SDS011;32999;52.412;4.890;2022-08-01T18:49:25;8.10;;;1.63;;
47259;SDS011;32999;52.412;4.890;2022-08-01T18:54:26;3.22;;;1.33;;
47259;SDS011;32999;52.412;4.890;2022-08-01T18:59:30;6.40;;;1.25;;
47259;SDS011;32999;52.412;4.890;2022-08-01T19:04:31;7.50;;;1.50;;
47259;SDS011;32999;52.412;4.890;2022-08-01T19:09:33;5.10;;;1.33;;
47259;SDS011;32999;52.412;4.890;2022-08-01T19:14:37;5.93;;;1.33;;
47259;SDS011;32999;52.412;4.890;2022-08-01T19:19:38;7.38;;;1.33;;
47259;SDS011;32999;52.412;4.890;2022-08-01T19:24:40;4.50;;;1.08;;
47259;SDS011;32999;52.412;4.890;2022-08-01T19:29:45;8.20;;;4.43;;
47259;SDS011;32999;52.412;4.890;2022-08-01T19:34:54;3.78;;;1.33;;
47259;SDS011;32999;52.412;4.890;2022-08-01T19:40:04;5.90;;;1.10;;
47259;SDS011;32999;52.412;4.890;2022-08-01T19:45:10;4.95;;;1.90;;
47259;SDS011;32999;52.412;4.890;2022-08-01T19:50:11;6.03;;;1.50;;
47259;SDS011;32999;52.412;4.890;2022-08-01T19:55:13;5.20;;;1.60;;
47259;SDS011;32999;52.412;4.890;2022-08-01T20:00:16;8.13;;;2.50;;
47259;SDS011;32999;52.412;4.890;2022-08-01T20:05:18;5.17;;;2.03;;
47259;SDS011;32999;52.412;4.890;2022-08-01T20:10:20;4.95;;;1.80;;
47259;SDS011;32999;52.412;4.890;2022-08-01T20:15:23;8.38;;;1.98;;
47259;SDS011;32999;52.412;4.890;2022-08-01T20:20:25;6.40;;;1.47;;
47259;SDS011;32999;52.412;4.890;2022-08-01T20:25:29;8.63;;;2.35;;
47259;SDS011;32999;52.412;4.890;2022-08-01T20:30:34;4.95;;;1.73;;
47259;SDS011;32999;52.412;4.890;2022-08-01T20:35:36;6.38;;;2.00;;
47259;SDS011;32999;52.412;4.890;2022-08-01T20:40:40;6.93;;;2.30;;
47259;SDS011;32999;52.412;4.890;2022-08-01T20:45:46;11.35;;;3.03;;
47259;SDS011;32999;52.412;4.890;2022-08-01T20:50:49;5.65;;;1.85;;
47259;SDS011;32999;52.412;4.890;2022-08-01T20:56:09;7.63;;;1.90;;
47259;SDS011;32999;52.412;4.890;2022-08-01T21:01:19;8.18;;;2.33;;
47259;SDS011;32999;52.412;4.890;2022-08-01T21:06:25;5.60;;;1.98;;
47259;SDS011;32999;52.412;4.890;2022-08-01T21:11:37;4.85;;;2.10;;
47259;SDS011;32999;52.412;4.890;2022-08-01T21:16:42;6.40;;;1.75;;
47259;SDS011;32999;52.412;4.890;2022-08-01T21:21:50;7.72;;;2.17;;
47259;SDS011;32999;52.412;4.890;2022-08-01T21:27:01;5.57;;;2.65;;
47259;SDS011;32999;52.412;4.890;2022-08-01T21:32:07;8.40;;;2.08;;
47259;SDS011;32999;52.412;4.890;2022-08-01T21:37:14;5.00;;;2.33;;
47259;SDS011;32999;52.412;4.890;2022-08-01T21:42:17;8.25;;;2.38;;
47259;SDS011;32999;52.412;4.890;2022-08-01T21:47:20;5.57;;;1.80;;
47259;SDS011;32999;52.412;4.890;2022-08-01T21:52:23;3.97;;;1.67;;
47259;SDS011;32999;52.412;4.890;2022-08-01T21:57:32;7.25;;;2.08;;
47259;SDS011;32999;52.412;4.890;2022-08-01T22:02:52;4.00;;;2.25;;
47259;SDS011;32999;52.412;4.890;2022-08-01T22:08:01;6.03;;;2.60;;
47259;SDS011;32999;52.412;4.890;2022-08-01T22:13:03;5.07;;;2.65;;
47259;SDS011;32999;52.412;4.890;2022-08-01T22:18:07;9.35;;;3.20;;
47259;SDS011;32999;52.412;4.890;2022-08-01T22:23:08;8.00;;;2.63;;
47259;SDS011;32999;52.412;4.890;2022-08-01T22:28:13;9.68;;;2.70;;
47259;SDS011;32999;52.412;4.890;2022-08-01T22:33:18;5.43;;;2.22;;
47259;SDS011;32999;52.412;4.890;2022-08-01T22:38:21;6.40;;;2.20;;
47259;SDS011;32999;52.412;4.890;2022-08-01T22:53:39;4.65;;;2.00;;
47259;SDS011;32999;52.412;4.890;2022-08-01T22:58:53;3.97;;;1.70;;
47259;SDS011;32999;52.412;4.890;2022-08-01T23:04:00;5.75;;;2.30;;
47259;SDS011;32999;52.412;4.890;2022-08-01T23:09:03;5.50;;;2.05;;
47259;SDS011;32999;52.412;4.890;2022-08-01T23:14:05;4.15;;;1.67;;
47259;SDS011;32999;52.412;4.890;2022-08-01T23:19:09;4.40;;;1.88;;
47259;SDS011;32999;52.412;4.890;2022-08-01T23:24:11;6.97;;;2.00;;
47259;SDS011;32999;52.412;4.890;2022-08-01T23:29:14;11.25;;;2.92;;
47259;SDS011;32999;52.412;4.890;2022-08-01T23:34:18;5.63;;;2.28;;
47259;SDS011;32999;52.412;4.890;2022-08-01T23:39:19;7.70;;;3.00;;
47259;SDS011;32999;52.412;4.890;2022-08-01T23:44:21;7.72;;;2.67;;
47259;SDS011;32999;52.412;4.890;2022-08-01T23:49:24;5.03;;;1.83;;
47259;SDS011;32999;52.412;4.890;2022-08-01T23:54:26;10.38;;;1.92;;
47259;SDS011;32999;52.412;4.890;2022-08-01T23:59:28;6.80;;;1.58;;
